sensor_id;sensor_type;location;lat;lon;timestamp;pressure;altitude;pressure_sealevel;temperature;humidity
73624;BME280;61921;53.226;-1.296;2023-09-19T00:01:15;75760.12;;;-138.45;74.64
73624;BME280;61921;53.226;-1.296;2023-09-19T00:03:40;75765.57;;;-138.45;74.73
73624;BME280;61921;53.226;-1.296;2023-09-19T00:06:06;75762.78;;;-138.45;74.55
73624;BME280;61921;53.226;-1.296;2023-09-19T00:08:31;75759.11;;;-138.45;74.66
73624;BME280;61921;53.226;-1.296;2023-09-19T00:10:56;75752.26;;;-138.45;74.41
73624;BME280;61921;53.226;-1.296;2023-09-19T00:13:22;75747.57;;;-138.45;74.41
73624;BME280;61921;53.226;-1.296;2023-09-19T00:15:48;75729.96;;;-138.45;74.01
73624;BME280;61921;53.226;-1.296;2023-09-19T00:18:12;75728.82;;;-138.45;73.52
73624;BME280;61921;53.226;-1.296;2023-09-19T00:20:38;75722.74;;;-138.45;73.33
73624;BME280;61921;53.226;-1.296;2023-09-19T00:23:03;75715.39;;;-138.45;73.30
73624;BME280;61921;53.226;-1.296;2023-09-19T00:25:29;75717.04;;;-138.45;73.49
73624;BME280;61921;53.226;-1.296;2023-09-19T00:27:54;75727.17;;;-138.45;73.46
73624;BME280;61921;53.226;-1.296;2023-09-19T00:30:20;75706.52;;;-138.45;73.39
73624;BME280;61921;53.226;-1.296;2023-09-19T00:32:45;75706.27;;;-138.45;73.80
73624;BME280;61921;53.226;-1.296;2023-09-19T00:35:10;75701.58;;;-138.45;73.70
73624;BME280;61921;53.226;-1.296;2023-09-19T00:37:36;75713.11;;;-138.45;74.03
73624;BME280;61921;53.226;-1.296;2023-09-19T00:40:01;75710.70;;;-138.45;74.29
73624;BME280;61921;53.226;-1.296;2023-09-19T00:42:26;75716.66;;;-138.45;74.31
73624;BME280;61921;53.226;-1.296;2023-09-19T00:44:51;75720.58;;;-138.45;74.33
73624;BME280;61921;53.226;-1.296;2023-09-19T00:47:17;75719.57;;;-138.45;74.45
73624;BME280;61921;53.226;-1.296;2023-09-19T00:49:42;75714.88;;;-138.45;74.46
73624;BME280;61921;53.226;-1.296;2023-09-19T00:52:08;75726.54;;;-138.45;74.71
73624;BME280;61921;53.226;-1.296;2023-09-19T00:54:34;75721.09;;;-138.45;74.29
73624;BME280;61921;53.226;-1.296;2023-09-19T00:56:59;75722.61;;;-138.45;74.10
73624;BME280;61921;53.226;-1.296;2023-09-19T00:59:24;75723.63;;;-138.45;74.41
73624;BME280;61921;53.226;-1.296;2023-09-19T01:01:50;75728.57;;;-138.45;74.22
73624;BME280;61921;53.226;-1.296;2023-09-19T01:04:15;75727.43;;;-138.45;74.08
73624;BME280;61921;53.226;-1.296;2023-09-19T01:06:40;75739.72;;;-138.45;73.98
73624;BME280;61921;53.226;-1.296;2023-09-19T01:09:05;75737.94;;;-138.45;73.78
73624;BME280;61921;53.226;-1.296;2023-09-19T01:11:35;75727.17;;;-138.45;73.21
73624;BME280;61921;53.226;-1.296;2023-09-19T01:14:01;75724.13;;;-138.45;72.90
73624;BME280;61921;53.226;-1.296;2023-09-19T01:16:29;75729.45;;;-138.45;73.23
73624;BME280;61921;53.226;-1.296;2023-09-19T01:18:52;75727.68;;;-138.45;73.08
73624;BME280;61921;53.226;-1.296;2023-09-19T01:21:18;75718.94;;;-138.45;73.18
73624;BME280;61921;53.226;-1.296;2023-09-19T01:23:52;75729.96;;;-138.45;73.20
73624;BME280;61921;53.226;-1.296;2023-09-19T01:26:07;75724.01;;;-138.45;73.13
73624;BME280;61921;53.226;-1.296;2023-09-19T01:28:32;75718.05;;;-138.45;73.05
73624;BME280;61921;53.226;-1.296;2023-09-19T01:30:57;75713.62;;;-138.45;72.77
73624;BME280;61921;53.226;-1.296;2023-09-19T01:33:18;75712.85;;;-138.45;72.94
73624;BME280;61921;53.226;-1.296;2023-09-19T01:35:43;75714.38;;;-138.45;72.86
73624;BME280;61921;53.226;-1.296;2023-09-19T01:38:09;75709.43;;;-138.45;73.11
73624;BME280;61921;53.226;-1.296;2023-09-19T01:40:40;75725.27;;;-138.45;72.90
73624;BME280;61921;53.226;-1.296;2023-09-19T01:43:05;75718.94;;;-138.45;72.71
73624;BME280;61921;53.226;-1.296;2023-09-19T01:45:33;75721.72;;;-138.45;72.51
73624;BME280;61921;53.226;-1.296;2023-09-19T01:47:52;75728.95;;;-138.45;72.89
73624;BME280;61921;53.226;-1.296;2023-09-19T01:50:23;75746.69;;;-138.45;72.67
73624;BME280;61921;53.226;-1.296;2023-09-19T01:52:48;75733.89;;;-138.45;72.51
73624;BME280;61921;53.226;-1.296;2023-09-19T01:55:09;75731.36;;;-138.45;72.26
73624;BME280;61921;53.226;-1.296;2023-09-19T01:57:36;75729.83;;;-138.45;72.19
73624;BME280;61921;53.226;-1.296;2023-09-19T02:00:02;75719.70;;;-138.45;71.69
73624;BME280;61921;53.226;-1.296;2023-09-19T02:02:23;75712.09;;;-138.45;71.32
73624;BME280;61921;53.226;-1.296;2023-09-19T02:04:48;75704.24;;;-138.45;71.46
73624;BME280;61921;53.226;-1.296;2023-09-19T02:07:13;75710.07;;;-138.45;71.35
73624;BME280;61921;53.226;-1.296;2023-09-19T02:09:38;75710.70;;;-138.45;71.43
73624;BME280;61921;53.226;-1.296;2023-09-19T02:12:05;75712.47;;;-138.45;71.43
73624;BME280;61921;53.226;-1.296;2023-09-19T02:14:29;75720.08;;;-138.45;71.34
73624;BME280;61921;53.226;-1.296;2023-09-19T02:16:54;75712.22;;;-138.45;71.55
73624;BME280;61921;53.226;-1.296;2023-09-19T02:19:20;75706.52;;;-138.45;71.48
73624;BME280;61921;53.226;-1.296;2023-09-19T02:21:45;75691.19;;;-138.45;71.56
73624;BME280;61921;53.226;-1.296;2023-09-19T02:24:11;75692.58;;;-138.45;71.52
73624;BME280;61921;53.226;-1.296;2023-09-19T02:26:36;75691.19;;;-138.45;71.63
73624;BME280;61921;53.226;-1.296;2023-09-19T02:29:01;75679.66;;;-138.45;71.73
73624;BME280;61921;53.226;-1.296;2023-09-19T02:31:27;75680.80;;;-138.45;71.57
73624;BME280;61921;53.226;-1.296;2023-09-19T02:33:52;75680.67;;;-138.45;71.92
73624;BME280;61921;53.226;-1.296;2023-09-19T02:36:17;75686.25;;;-138.45;71.86
73624;BME280;61921;53.226;-1.296;2023-09-19T02:38:43;75683.33;;;-138.45;72.10
73624;BME280;61921;53.226;-1.296;2023-09-19T02:41:08;75685.87;;;-138.45;72.28
73624;BME280;61921;53.226;-1.296;2023-09-19T02:43:34;75680.16;;;-138.45;72.17
73624;BME280;61921;53.226;-1.296;2023-09-19T02:45:59;75683.58;;;-138.45;72.68
73624;BME280;61921;53.226;-1.296;2023-09-19T02:48:24;75683.33;;;-138.45;72.25
73624;BME280;61921;53.226;-1.296;2023-09-19T02:50:51;75687.64;;;-138.45;72.46
73624;BME280;61921;53.226;-1.296;2023-09-19T02:53:15;75683.84;;;-138.45;72.67
73624;BME280;61921;53.226;-1.296;2023-09-19T02:55:41;75670.79;;;-138.45;72.60
73624;BME280;61921;53.226;-1.296;2023-09-19T02:58:07;75684.72;;;-138.45;73.27
73624;BME280;61921;53.226;-1.296;2023-09-19T03:00:31;75675.60;;;-138.45;73.23
73624;BME280;61921;53.226;-1.296;2023-09-19T03:02:57;75676.61;;;-138.45;73.36
73624;BME280;61921;53.226;-1.296;2023-09-19T03:05:22;75675.09;;;-138.45;73.39
73624;BME280;61921;53.226;-1.296;2023-09-19T03:07:48;75670.15;;;-138.45;73.46
73624;BME280;61921;53.226;-1.296;2023-09-19T03:10:13;75666.10;;;-138.45;73.77
73624;BME280;61921;53.226;-1.296;2023-09-19T03:12:38;75658.75;;;-138.45;73.64
73624;BME280;61921;53.226;-1.296;2023-09-19T03:15:05;75672.81;;;-138.45;73.81
73624;BME280;61921;53.226;-1.296;2023-09-19T03:17:29;75658.62;;;-138.45;73.77
73624;BME280;61921;53.226;-1.296;2023-09-19T03:19:55;75657.23;;;-138.45;73.80
73624;BME280;61921;53.226;-1.296;2023-09-19T03:22:19;75651.78;;;-138.45;73.57
73624;BME280;61921;53.226;-1.296;2023-09-19T03:24:45;75640.00;;;-138.45;73.33
73624;BME280;61921;53.226;-1.296;2023-09-19T03:27:10;75633.66;;;-138.45;73.38
73624;BME280;61921;53.226;-1.296;2023-09-19T03:29:35;75631.76;;;-138.45;73.54
73624;BME280;61921;53.226;-1.296;2023-09-19T03:32:01;75625.42;;;-138.45;73.37
73624;BME280;61921;53.226;-1.296;2023-09-19T03:34:26;75617.82;;;-138.45;73.57
73624;BME280;61921;53.226;-1.296;2023-09-19T03:36:52;75609.96;;;-138.45;73.12
73624;BME280;61921;53.226;-1.296;2023-09-19T03:39:17;75592.23;;;-138.45;72.88
73624;BME280;61921;53.226;-1.296;2023-09-19T03:41:42;75585.76;;;-138.45;72.96
73624;BME280;61921;53.226;-1.296;2023-09-19T03:44:08;75580.44;;;-138.45;72.99
73624;BME280;61921;53.226;-1.296;2023-09-19T03:46:33;75579.17;;;-138.45;72.69
73624;BME280;61921;53.226;-1.296;2023-09-19T03:48:58;75565.36;;;-138.45;72.72
73624;BME280;61921;53.226;-1.296;2023-09-19T03:51:23;75560.42;;;-138.45;72.66
73624;BME280;61921;53.226;-1.296;2023-09-19T03:53:49;75548.26;;;-138.45;72.47
73624;BME280;61921;53.226;-1.296;2023-09-19T03:56:14;75546.86;;;-138.45;72.23
73624;BME280;61921;53.226;-1.296;2023-09-19T03:58:39;75561.44;;;-138.45;72.64
73624;BME280;61921;53.226;-1.296;2023-09-19T04:01:05;75565.62;;;-138.45;72.75
73624;BME280;61921;53.226;-1.296;2023-09-19T04:03:30;75576.26;;;-138.45;72.81
73624;BME280;61921;53.226;-1.296;2023-09-19T04:05:56;75568.28;;;-138.45;73.00
73624;BME280;61921;53.226;-1.296;2023-09-19T04:08:21;75575.12;;;-138.45;73.37
73624;BME280;61921;53.226;-1.296;2023-09-19T04:10:47;75556.24;;;-138.45;73.17
73624;BME280;61921;53.226;-1.296;2023-09-19T04:13:12;75547.75;;;-138.45;72.98
73624;BME280;61921;53.226;-1.296;2023-09-19T04:15:37;75537.61;;;-138.45;72.90
73624;BME280;61921;53.226;-1.296;2023-09-19T04:18:03;75519.62;;;-138.45;72.78
73624;BME280;61921;53.226;-1.296;2023-09-19T04:20:28;75516.07;;;-138.45;72.59
73624;BME280;61921;53.226;-1.296;2023-09-19T04:22:53;75515.57;;;-138.45;72.90
73624;BME280;61921;53.226;-1.296;2023-09-19T04:25:19;75506.44;;;-138.45;72.47
73624;BME280;61921;53.226;-1.296;2023-09-19T04:27:44;75498.97;;;-138.45;72.08
73624;BME280;61921;53.226;-1.296;2023-09-19T04:30:10;75504.92;;;-138.45;72.44
73624;BME280;61921;53.226;-1.296;2023-09-19T04:32:35;75489.59;;;-138.45;71.99
73624;BME280;61921;53.226;-1.296;2023-09-19T04:35:01;75486.42;;;-138.45;72.07
73624;BME280;61921;53.226;-1.296;2023-09-19T04:37:26;75471.22;;;-138.45;72.16
73624;BME280;61921;53.226;-1.296;2023-09-19T04:39:52;75453.35;;;-138.45;72.34
73624;BME280;61921;53.226;-1.296;2023-09-19T04:42:17;75460.58;;;-138.45;73.17
73624;BME280;61921;53.226;-1.296;2023-09-19T04:44:43;75457.92;;;-138.45;73.96
73624;BME280;61921;53.226;-1.296;2023-09-19T04:47:08;75455.89;;;-138.45;74.18
73624;BME280;61921;53.226;-1.296;2023-09-19T04:49:33;75446.89;;;-138.45;74.21
73624;BME280;61921;53.226;-1.296;2023-09-19T04:51:59;75438.40;;;-138.45;74.84
73624;BME280;61921;53.226;-1.296;2023-09-19T04:54:24;75417.24;;;-138.45;75.13
73624;BME280;61921;53.226;-1.296;2023-09-19T04:56:49;75411.42;;;-138.45;75.97
73624;BME280;61921;53.226;-1.296;2023-09-19T04:59:15;75406.09;;;-138.45;76.37
73624;BME280;61921;53.226;-1.296;2023-09-19T05:01:40;75417.75;;;-138.45;76.79
73624;BME280;61921;53.226;-1.296;2023-09-19T05:04:05;75410.66;;;-138.45;77.38
73624;BME280;61921;53.226;-1.296;2023-09-19T05:06:31;75419.27;;;-138.45;77.90
73624;BME280;61921;53.226;-1.296;2023-09-19T05:08:56;75408.00;;;-138.45;78.60
73624;BME280;61921;53.226;-1.296;2023-09-19T05:11:21;75415.22;;;-138.45;79.06
73624;BME280;61921;53.226;-1.296;2023-09-19T05:13:47;75413.70;;;-138.45;79.62
73624;BME280;61921;53.226;-1.296;2023-09-19T05:16:12;75434.35;;;-138.45;80.72
73624;BME280;61921;53.226;-1.296;2023-09-19T05:18:37;75427.00;;;-138.45;81.64
73624;BME280;61921;53.226;-1.296;2023-09-19T05:21:03;75414.58;;;-138.45;82.04
73624;BME280;61921;53.226;-1.296;2023-09-19T05:23:28;75423.20;;;-138.45;82.78
73624;BME280;61921;53.226;-1.296;2023-09-19T05:25:53;75424.09;;;-138.45;83.96
73624;BME280;61921;53.226;-1.296;2023-09-19T05:28:19;75419.27;;;-138.45;84.68
73624;BME280;61921;53.226;-1.296;2023-09-19T05:30:44;75419.02;;;-138.45;85.32
73624;BME280;61921;53.226;-1.296;2023-09-19T05:33:09;75416.61;;;-138.45;85.69
73624;BME280;61921;53.226;-1.296;2023-09-19T05:35:35;75391.65;;;-138.45;86.04
73624;BME280;61921;53.226;-1.296;2023-09-19T05:38:00;75366.94;;;-138.45;86.09
73624;BME280;61921;53.226;-1.296;2023-09-19T05:40:25;75356.43;;;-138.45;86.01
73624;BME280;61921;53.226;-1.296;2023-09-19T05:42:51;75368.46;;;-138.45;86.28
73624;BME280;61921;53.226;-1.296;2023-09-19T05:45:17;75370.49;;;-138.45;86.56
73624;BME280;61921;53.226;-1.296;2023-09-19T05:47:41;75361.88;;;-138.45;86.50
73624;BME280;61921;53.226;-1.296;2023-09-19T05:50:07;75345.53;;;-138.45;86.22
73624;BME280;61921;53.226;-1.296;2023-09-19T05:52:32;75333.88;;;-138.45;86.14
73624;BME280;61921;53.226;-1.296;2023-09-19T05:54:57;75323.61;;;-138.45;86.08
73624;BME280;61921;53.226;-1.296;2023-09-19T05:57:23;75322.09;;;-138.45;86.22
73624;BME280;61921;53.226;-1.296;2023-09-19T05:59:48;75318.54;;;-138.45;86.38
73624;BME280;61921;53.226;-1.296;2023-09-19T06:02:13;75289.78;;;-138.45;86.53
73624;BME280;61921;53.226;-1.296;2023-09-19T06:04:39;75295.61;;;-138.45;86.80
73624;BME280;61921;53.226;-1.296;2023-09-19T06:07:04;75297.64;;;-138.45;86.82
73624;BME280;61921;53.226;-1.296;2023-09-19T06:09:30;75296.12;;;-138.45;86.74
73624;BME280;61921;53.226;-1.296;2023-09-19T06:11:55;75288.52;;;-138.45;87.10
73624;BME280;61921;53.226;-1.296;2023-09-19T06:14:20;75287.00;;;-138.45;87.24
73624;BME280;61921;53.226;-1.296;2023-09-19T06:16:45;75286.11;;;-138.45;87.69
73624;BME280;61921;53.226;-1.296;2023-09-19T06:19:10;75282.82;;;-138.45;87.99
73624;BME280;61921;53.226;-1.296;2023-09-19T06:21:36;75280.03;;;-138.45;88.39
73624;BME280;61921;53.226;-1.296;2023-09-19T06:24:02;75271.16;;;-138.45;88.60
73624;BME280;61921;53.226;-1.296;2023-09-19T06:26:26;75261.15;;;-138.45;88.73
73624;BME280;61921;53.226;-1.296;2023-09-19T06:28:52;75264.32;;;-138.45;88.71
73624;BME280;61921;53.226;-1.296;2023-09-19T06:31:17;75252.66;;;-138.45;88.81
73624;BME280;61921;53.226;-1.296;2023-09-19T06:33:42;75246.96;;;-138.45;88.77
73624;BME280;61921;53.226;-1.296;2023-09-19T06:36:08;75239.23;;;-138.45;88.73
73624;BME280;61921;53.226;-1.296;2023-09-19T06:38:33;75234.54;;;-138.45;88.97
73624;BME280;61921;53.226;-1.296;2023-09-19T06:40:58;75223.65;;;-138.45;88.96
73624;BME280;61921;53.226;-1.296;2023-09-19T06:43:24;75202.49;;;-138.45;88.83
73624;BME280;61921;53.226;-1.296;2023-09-19T06:45:49;75197.42;;;-138.45;88.76
73624;BME280;61921;53.226;-1.296;2023-09-19T06:48:14;75192.48;;;-138.45;88.78
73624;BME280;61921;53.226;-1.296;2023-09-19T06:50:40;75168.03;;;-138.45;88.90
73624;BME280;61921;53.226;-1.296;2023-09-19T06:53:05;75149.03;;;-138.45;88.86
73624;BME280;61921;53.226;-1.296;2023-09-19T06:55:30;75139.52;;;-138.45;88.50
73624;BME280;61921;53.226;-1.296;2023-09-19T06:57:56;75130.40;;;-138.45;88.47
73624;BME280;61921;53.226;-1.296;2023-09-19T07:00:21;75134.84;;;-138.45;88.51
73624;BME280;61921;53.226;-1.296;2023-09-19T07:02:55;75120.27;;;-138.45;88.65
73624;BME280;61921;53.226;-1.296;2023-09-19T07:05:11;75101.90;;;-138.45;88.76
73624;BME280;61921;53.226;-1.296;2023-09-19T07:07:37;75084.03;;;-138.45;88.52
73624;BME280;61921;53.226;-1.296;2023-09-19T07:10:02;75070.22;;;-138.45;88.08
73624;BME280;61921;53.226;-1.296;2023-09-19T07:12:27;75059.33;;;-138.45;87.94
73624;BME280;61921;53.226;-1.296;2023-09-19T07:14:53;75043.87;;;-138.45;87.86
73624;BME280;61921;53.226;-1.296;2023-09-19T07:17:18;75040.96;;;-138.45;87.86
73624;BME280;61921;53.226;-1.296;2023-09-19T07:19:44;75025.76;;;-138.45;88.07
73624;BME280;61921;53.226;-1.296;2023-09-19T07:22:08;75011.82;;;-138.45;87.98
73624;BME280;61921;53.226;-1.296;2023-09-19T07:24:34;75008.78;;;-138.45;87.97
73624;BME280;61921;53.226;-1.296;2023-09-19T07:26:59;74999.28;;;-138.45;87.81
73624;BME280;61921;53.226;-1.296;2023-09-19T07:29:24;74992.56;;;-138.45;87.75
73624;BME280;61921;53.226;-1.296;2023-09-19T07:31:50;74976.22;;;-138.45;87.50
73624;BME280;61921;53.226;-1.296;2023-09-19T07:34:15;74978.12;;;-138.45;87.26
73624;BME280;61921;53.226;-1.296;2023-09-19T07:36:40;74968.75;;;-138.45;87.33
73624;BME280;61921;53.226;-1.296;2023-09-19T07:39:06;74962.54;;;-138.45;87.47
73624;BME280;61921;53.226;-1.296;2023-09-19T07:41:31;74953.80;;;-138.45;86.76
73624;BME280;61921;53.226;-1.296;2023-09-19T07:43:56;74926.81;;;-138.45;86.66
73624;BME280;61921;53.226;-1.296;2023-09-19T07:46:21;74921.24;;;-138.45;86.76
73624;BME280;61921;53.226;-1.296;2023-09-19T07:48:47;74920.61;;;-138.45;86.79
73624;BME280;61921;53.226;-1.296;2023-09-19T07:51:12;74897.42;;;-138.45;86.55
73624;BME280;61921;53.226;-1.296;2023-09-19T07:53:38;74897.30;;;-138.45;86.46
73624;BME280;61921;53.226;-1.296;2023-09-19T07:56:04;74896.28;;;-138.45;86.18
73624;BME280;61921;53.226;-1.296;2023-09-19T07:58:28;74874.62;;;-138.45;86.49
73624;BME280;61921;53.226;-1.296;2023-09-19T08:00:53;74873.35;;;-138.45;86.76
73624;BME280;61921;53.226;-1.296;2023-09-19T08:03:19;74869.55;;;-138.45;86.53
73624;BME280;61921;53.226;-1.296;2023-09-19T08:05:45;74864.23;;;-138.45;88.27
73624;BME280;61921;53.226;-1.296;2023-09-19T08:08:09;74866.64;;;-138.45;87.03
73624;BME280;61921;53.226;-1.296;2023-09-19T08:10:35;74860.30;;;-138.45;86.73
73624;BME280;61921;53.226;-1.296;2023-09-19T08:13:00;74852.83;;;-138.45;86.45
73624;BME280;61921;53.226;-1.296;2023-09-19T08:15:25;74840.80;;;-138.45;86.37
73624;BME280;61921;53.226;-1.296;2023-09-19T08:17:51;74823.82;;;-138.45;85.66
73624;BME280;61921;53.226;-1.296;2023-09-19T08:20:16;74808.74;;;-138.45;85.24
73624;BME280;61921;53.226;-1.296;2023-09-19T08:22:43;74778.47;;;-138.45;84.87
73624;BME280;61921;53.226;-1.296;2023-09-19T08:25:08;74786.32;;;-138.45;84.42
73624;BME280;61921;53.226;-1.296;2023-09-19T08:27:33;74782.78;;;-138.45;84.83
73624;BME280;61921;53.226;-1.296;2023-09-19T08:29:58;74788.10;;;-138.45;84.69
73624;BME280;61921;53.226;-1.296;2023-09-19T08:32:23;74764.15;;;-138.45;84.90
73624;BME280;61921;53.226;-1.296;2023-09-19T08:34:49;74763.14;;;-138.45;85.05
73624;BME280;61921;53.226;-1.296;2023-09-19T08:37:14;74769.09;;;-138.45;84.61
73624;BME280;61921;53.226;-1.296;2023-09-19T08:39:39;74766.69;;;-138.45;84.81
73624;BME280;61921;53.226;-1.296;2023-09-19T08:42:04;74750.47;;;-138.45;84.23
73624;BME280;61921;53.226;-1.296;2023-09-19T08:44:30;74745.41;;;-138.45;84.53
73624;BME280;61921;53.226;-1.296;2023-09-19T08:47:01;74742.11;;;-138.45;83.93
73624;BME280;61921;53.226;-1.296;2023-09-19T08:49:27;74739.96;;;-138.45;84.43
73624;BME280;61921;53.226;-1.296;2023-09-19T08:51:46;74738.94;;;-138.45;84.38
73624;BME280;61921;53.226;-1.296;2023-09-19T08:54:19;74735.65;;;-138.45;84.66
73624;BME280;61921;53.226;-1.296;2023-09-19T08:56:37;74741.86;;;-138.45;84.60
73624;BME280;61921;53.226;-1.296;2023-09-19T08:59:03;74743.76;;;-138.45;85.01
73624;BME280;61921;53.226;-1.296;2023-09-19T09:01:28;74724.88;;;-138.45;85.02
73624;BME280;61921;53.226;-1.296;2023-09-19T09:03:53;74725.26;;;-138.45;84.34
73624;BME280;61921;53.226;-1.296;2023-09-19T09:06:17;74720.32;;;-138.45;84.52
73624;BME280;61921;53.226;-1.296;2023-09-19T09:08:43;74726.66;;;-138.45;84.71
73624;BME280;61921;53.226;-1.296;2023-09-19T09:11:08;74720.45;;;-138.45;85.17
73624;BME280;61921;53.226;-1.296;2023-09-19T09:13:34;74712.60;;;-138.45;84.82
73624;BME280;61921;53.226;-1.296;2023-09-19T09:15:58;74695.49;;;-138.45;84.78
73624;BME280;61921;53.226;-1.296;2023-09-19T09:18:23;74691.82;;;-138.45;84.02
73624;BME280;61921;53.226;-1.296;2023-09-19T09:20:48;74681.81;;;-138.45;83.58
73624;BME280;61921;53.226;-1.296;2023-09-19T09:23:14;74694.73;;;-138.45;83.33
73624;BME280;61921;53.226;-1.296;2023-09-19T09:25:49;74687.77;;;-138.45;83.59
73624;BME280;61921;53.226;-1.296;2023-09-19T09:28:05;74682.70;;;-138.45;83.36
73624;BME280;61921;53.226;-1.296;2023-09-19T09:30:34;74663.95;;;-138.45;83.35
73624;BME280;61921;53.226;-1.296;2023-09-19T09:35:20;74641.91;;;-138.45;82.42
73624;BME280;61921;53.226;-1.296;2023-09-19T09:37:45;74619.49;;;-138.45;81.70
73624;BME280;61921;53.226;-1.296;2023-09-19T09:40:10;74612.90;;;-138.45;81.15
73624;BME280;61921;53.226;-1.296;2023-09-19T09:42:36;74603.40;;;-138.45;81.13
73624;BME280;61921;53.226;-1.296;2023-09-19T09:45:14;74589.97;;;-138.45;81.43
73624;BME280;61921;53.226;-1.296;2023-09-19T09:49:51;74559.57;;;-138.45;80.79
73624;BME280;61921;53.226;-1.296;2023-09-19T09:52:16;74561.73;;;-138.45;80.65
73624;BME280;61921;53.226;-1.296;2023-09-19T09:57:08;74565.65;;;-138.45;80.54
73624;BME280;61921;53.226;-1.296;2023-09-19T09:59:47;74562.49;;;-138.45;80.91
73624;BME280;61921;53.226;-1.296;2023-09-19T10:02:01;74556.66;;;-138.45;81.28
73624;BME280;61921;53.226;-1.296;2023-09-19T10:04:28;74540.83;;;-138.45;80.71
73624;BME280;61921;53.226;-1.296;2023-09-19T10:06:47;74527.53;;;-138.45;79.57
73624;BME280;61921;53.226;-1.296;2023-09-19T10:09:12;74503.59;;;-138.45;79.57
73624;BME280;61921;53.226;-1.296;2023-09-19T10:11:41;74469.51;;;-138.45;78.41
73624;BME280;61921;53.226;-1.296;2023-09-19T10:14:04;74441.64;;;-138.45;77.15
73624;BME280;61921;53.226;-1.296;2023-09-19T10:16:30;74430.12;;;-138.45;76.26
73624;BME280;61921;53.226;-1.296;2023-09-19T10:18:53;74417.45;;;-138.45;76.01
73624;BME280;61921;53.226;-1.296;2023-09-19T10:21:18;74429.23;;;-138.45;76.45
73624;BME280;61921;53.226;-1.296;2023-09-19T10:23:44;74429.48;;;-138.45;75.56
73624;BME280;61921;53.226;-1.296;2023-09-19T10:26:08;74396.81;;;-138.45;75.98
73624;BME280;61921;53.226;-1.296;2023-09-19T10:28:35;74390.85;;;-138.45;75.68
73624;BME280;61921;53.226;-1.296;2023-09-19T10:31:00;74360.33;;;-138.45;74.96
73624;BME280;61921;53.226;-1.296;2023-09-19T10:33:25;74373.25;;;-138.45;74.01
73624;BME280;61921;53.226;-1.296;2023-09-19T10:35:50;74329.67;;;-138.45;74.19
73624;BME280;61921;53.226;-1.296;2023-09-19T10:38:17;74385.66;;;-138.45;74.36
73624;BME280;61921;53.226;-1.296;2023-09-19T10:40:40;74386.67;;;-138.45;75.21
73624;BME280;61921;53.226;-1.296;2023-09-19T10:43:05;74381.35;;;-138.45;75.04
73624;BME280;61921;53.226;-1.296;2023-09-19T10:45:31;74357.92;;;-138.45;74.37
73624;BME280;61921;53.226;-1.296;2023-09-19T10:47:54;74344.75;;;-138.45;73.54
73624;BME280;61921;53.226;-1.296;2023-09-19T10:50:20;74336.39;;;-138.45;73.32
73624;BME280;61921;53.226;-1.296;2023-09-19T10:52:45;74341.07;;;-138.45;73.57
73624;BME280;61921;53.226;-1.296;2023-09-19T10:55:15;74350.57;;;-138.45;73.38
73624;BME280;61921;53.226;-1.296;2023-09-19T10:57:35;74340.31;;;-138.45;74.28
73624;BME280;61921;53.226;-1.296;2023-09-19T11:00:02;74342.85;;;-138.45;74.85
73624;BME280;61921;53.226;-1.296;2023-09-19T11:02:25;74344.62;;;-138.45;74.29
73624;BME280;61921;53.226;-1.296;2023-09-19T11:04:51;74357.54;;;-138.45;74.26
73624;BME280;61921;53.226;-1.296;2023-09-19T11:07:16;74345.76;;;-138.45;73.15
73624;BME280;61921;53.226;-1.296;2023-09-19T11:09:45;74295.73;;;-138.45;72.98
73624;BME280;61921;53.226;-1.296;2023-09-19T11:12:06;74266.47;;;-138.45;72.58
73624;BME280;61921;53.226;-1.296;2023-09-19T11:14:37;74256.72;;;-138.45;71.22
73624;BME280;61921;53.226;-1.296;2023-09-19T11:19:21;74231.76;;;-138.45;70.48
73624;BME280;61921;53.226;-1.296;2023-09-19T11:21:52;74256.08;;;-138.45;70.41
73624;BME280;61921;53.226;-1.296;2023-09-19T11:26:41;74260.26;;;-138.45;70.60
73624;BME280;61921;53.226;-1.296;2023-09-19T11:36:17;74258.24;;;-138.45;70.33
73624;BME280;61921;53.226;-1.296;2023-09-19T11:38:57;74258.87;;;-138.45;70.55
73624;BME280;61921;53.226;-1.296;2023-09-19T11:43:31;74254.56;;;-138.45;70.80
73624;BME280;61921;53.226;-1.296;2023-09-19T11:46:06;74243.54;;;-138.45;70.93
73624;BME280;61921;53.226;-1.296;2023-09-19T11:48:23;74258.49;;;-138.45;71.53
73624;BME280;61921;53.226;-1.296;2023-09-19T11:50:48;74266.34;;;-138.45;71.70
73624;BME280;61921;53.226;-1.296;2023-09-19T11:53:12;74264.19;;;-138.45;72.18
73624;BME280;61921;53.226;-1.296;2023-09-19T11:55:37;74276.22;;;-138.45;72.31
73624;BME280;61921;53.226;-1.296;2023-09-19T11:58:02;74268.62;;;-138.45;72.78
73624;BME280;61921;53.226;-1.296;2023-09-19T12:00:27;74278.00;;;-138.45;72.74
73624;BME280;61921;53.226;-1.296;2023-09-19T12:02:55;74250.89;;;-138.45;73.45
73624;BME280;61921;53.226;-1.296;2023-09-19T12:05:19;74253.55;;;-138.45;72.75
73624;BME280;61921;53.226;-1.296;2023-09-19T12:07:43;74260.26;;;-138.45;73.24
73624;BME280;61921;53.226;-1.296;2023-09-19T12:10:08;74264.44;;;-138.45;73.65
73624;BME280;61921;53.226;-1.296;2023-09-19T12:12:32;74291.93;;;-138.45;74.10
73624;BME280;61921;53.226;-1.296;2023-09-19T12:14:58;74275.59;;;-138.45;75.31
73624;BME280;61921;53.226;-1.296;2023-09-19T12:17:23;74265.96;;;-138.45;74.66
73624;BME280;61921;53.226;-1.296;2023-09-19T12:19:50;74292.94;;;-138.45;74.79
73624;BME280;61921;53.226;-1.296;2023-09-19T12:22:13;74307.25;;;-138.45;75.75
73624;BME280;61921;53.226;-1.296;2023-09-19T12:24:38;74317.39;;;-138.45;76.43
73624;BME280;61921;53.226;-1.296;2023-09-19T12:27:04;74313.21;;;-138.45;76.30
73624;BME280;61921;53.226;-1.296;2023-09-19T12:29:28;74329.55;;;-138.45;77.03
73624;BME280;61921;53.226;-1.296;2023-09-19T12:31:54;74316.12;;;-138.45;77.49
73624;BME280;61921;53.226;-1.296;2023-09-19T12:34:21;74314.22;;;-138.45;77.18
73624;BME280;61921;53.226;-1.296;2023-09-19T12:36:43;74313.21;;;-138.45;77.45
73624;BME280;61921;53.226;-1.296;2023-09-19T12:39:08;74333.47;;;-138.45;77.54
73624;BME280;61921;53.226;-1.296;2023-09-19T12:41:34;74326.00;;;-138.45;78.06